Terminal Aerodrome Forecast
Issued by NWS Greer, SC

Home | Current Version | Previous Version | Text Only | Print | Product List | Glossary On
Versions: 1 2 3 4 5 6 7 8 9 10 11 12 13 14 15 16 17 18 19 20 21
000
FTUS42 KGSP 240207 AAA
TAFGSP
TAF AMD
KGSP 240207Z 2402/2424 07015G23KT P6SM -RA OVC005
      TEMPO 2402/2406 3SM RA BR OVC004
     FM240600 06014G21KT 2SM RA BR OVC005
     FM240900 06010KT 1SM RA BR OVC004
     FM241500 06005KT 3SM -SHRA BR OVC007
     FM241800 05007KT P6SM VCSH BKN010
     FM242100 36007KT P6SM VCSH BKN025 PROB30 2421/2424 4SM TS
      OVC015CB=

USA.gov is the U.S. government's official web portal to all federal, state and local government web resources and services.